sensor_id;sensor_type;location;lat;lon;timestamp;pressure;altitude;pressure_sealevel;temperature
74060;BMP280;62414;53.436;8.828;2022-11-20T00:00:46;100915.72;;;1.23
74060;BMP280;62414;53.436;8.828;2022-11-20T00:03:12;100919.44;;;1.18
74060;BMP280;62414;53.436;8.828;2022-11-20T00:05:39;100918.25;;;1.16
74060;BMP280;62414;53.436;8.828;2022-11-20T00:08:05;100923.59;;;1.16
74060;BMP280;62414;53.436;8.828;2022-11-20T00:10:30;100919.03;;;1.16
74060;BMP280;62414;53.436;8.828;2022-11-20T00:12:57;100923.38;;;1.24
74060;BMP280;62414;53.436;8.828;2022-11-20T00:15:22;100924.97;;;1.29
74060;BMP280;62414;53.436;8.828;2022-11-20T00:17:48;100924.19;;;1.28
74060;BMP280;62414;53.436;8.828;2022-11-20T00:20:14;100926.44;;;1.26
74060;BMP280;62414;53.436;8.828;2022-11-20T00:22:41;100927.94;;;1.24
74060;BMP280;62414;53.436;8.828;2022-11-20T00:25:07;100931.38;;;1.24
74060;BMP280;62414;53.436;8.828;2022-11-20T00:27:32;100927.31;;;1.57
74060;BMP280;62414;53.436;8.828;2022-11-20T00:29:58;100916.97;;;1.55
74060;BMP280;62414;53.436;8.828;2022-11-20T00:32:23;100921.75;;;1.43
74060;BMP280;62414;53.436;8.828;2022-11-20T00:34:48;100922.81;;;1.38
74060;BMP280;62414;53.436;8.828;2022-11-20T00:37:14;100919.09;;;1.20
74060;BMP280;62414;53.436;8.828;2022-11-20T00:39:41;100923.13;;;1.10
74060;BMP280;62414;53.436;8.828;2022-11-20T00:42:06;100923.81;;;1.07
74060;BMP280;62414;53.436;8.828;2022-11-20T00:44:31;100921.44;;;1.02
74060;BMP280;62414;53.436;8.828;2022-11-20T00:46:57;100922.22;;;1.02
74060;BMP280;62414;53.436;8.828;2022-11-20T00:49:22;100914.69;;;1.08
74060;BMP280;62414;53.436;8.828;2022-11-20T00:51:48;100909.03;;;1.10
74060;BMP280;62414;53.436;8.828;2022-11-20T00:54:13;100916.59;;;1.08
74060;BMP280;62414;53.436;8.828;2022-11-20T00:56:40;100919.19;;;1.04
74060;BMP280;62414;53.436;8.828;2022-11-20T00:59:05;100923.00;;;1.03
74060;BMP280;62414;53.436;8.828;2022-11-20T01:01:31;100919.19;;;1.04
74060;BMP280;62414;53.436;8.828;2022-11-20T01:03:58;100915.00;;;1.03
74060;BMP280;62414;53.436;8.828;2022-11-20T01:06:25;100905.09;;;1.03
74060;BMP280;62414;53.436;8.828;2022-11-20T01:08:53;100911.34;;;1.11
74060;BMP280;62414;53.436;8.828;2022-11-20T01:11:20;100912.75;;;1.28
74060;BMP280;62414;53.436;8.828;2022-11-20T01:13:48;100903.09;;;1.20
74060;BMP280;62414;53.436;8.828;2022-11-20T01:16:16;100914.00;;;1.11
74060;BMP280;62414;53.436;8.828;2022-11-20T01:18:44;100910.19;;;1.12
74060;BMP280;62414;53.436;8.828;2022-11-20T01:21:11;100917.78;;;1.10
74060;BMP280;62414;53.436;8.828;2022-11-20T01:23:38;100910.50;;;1.07
74060;BMP280;62414;53.436;8.828;2022-11-20T01:26:06;100897.53;;;1.06
74060;BMP280;62414;53.436;8.828;2022-11-20T01:28:32;100892.53;;;1.04
74060;BMP280;62414;53.436;8.828;2022-11-20T01:31:00;100898.66;;;1.05
74060;BMP280;62414;53.436;8.828;2022-11-20T01:33:26;100884.53;;;1.04
74060;BMP280;62414;53.436;8.828;2022-11-20T01:35:52;100894.88;;;1.06
74060;BMP280;62414;53.436;8.828;2022-11-20T01:38:18;100882.31;;;1.06
74060;BMP280;62414;53.436;8.828;2022-11-20T01:40:43;100882.72;;;1.08
74060;BMP280;62414;53.436;8.828;2022-11-20T01:43:14;100873.25;;;1.11
74060;BMP280;62414;53.436;8.828;2022-11-20T01:48:49;100869.84;;;1.14
74060;BMP280;62414;53.436;8.828;2022-11-20T01:51:20;100868.06;;;1.21
74060;BMP280;62414;53.436;8.828;2022-11-20T01:53:46;100863.72;;;1.36
74060;BMP280;62414;53.436;8.828;2022-11-20T01:56:13;100866.91;;;1.45
74060;BMP280;62414;53.436;8.828;2022-11-20T01:58:43;100859.50;;;1.35
74060;BMP280;62414;53.436;8.828;2022-11-20T02:01:11;100871.09;;;1.20
74060;BMP280;62414;53.436;8.828;2022-11-20T02:03:37;100870.66;;;1.14
74060;BMP280;62414;53.436;8.828;2022-11-20T02:06:07;100876.00;;;1.18
74060;BMP280;62414;53.436;8.828;2022-11-20T02:08:35;100869.44;;;1.12
74060;BMP280;62414;53.436;8.828;2022-11-20T02:11:01;100862.59;;;1.11
74060;BMP280;62414;53.436;8.828;2022-11-20T02:13:28;100866.72;;;1.08
74060;BMP280;62414;53.436;8.828;2022-11-20T02:15:53;100872.47;;;1.10
74060;BMP280;62414;53.436;8.828;2022-11-20T02:18:20;100860.69;;;1.11
74060;BMP280;62414;53.436;8.828;2022-11-20T02:20:47;100859.91;;;1.11
74060;BMP280;62414;53.436;8.828;2022-11-20T02:23:21;100862.59;;;1.11
74060;BMP280;62414;53.436;8.828;2022-11-20T02:25:52;100861.09;;;1.13
74060;BMP280;62414;53.436;8.828;2022-11-20T02:28:18;100857.66;;;1.13
74060;BMP280;62414;53.436;8.828;2022-11-20T02:30:44;100859.56;;;1.12
74060;BMP280;62414;53.436;8.828;2022-11-20T02:33:09;100853.09;;;1.13
74060;BMP280;62414;53.436;8.828;2022-11-20T02:35:45;100850.09;;;1.15
74060;BMP280;62414;53.436;8.828;2022-11-20T02:38:11;100849.75;;;1.46
74060;BMP280;62414;53.436;8.828;2022-11-20T02:40:38;100845.47;;;1.38
74060;BMP280;62414;53.436;8.828;2022-11-20T02:43:04;100848.34;;;1.26
74060;BMP280;62414;53.436;8.828;2022-11-20T02:45:30;100843.19;;;1.14
74060;BMP280;62414;53.436;8.828;2022-11-20T02:47:56;100846.53;;;1.07
74060;BMP280;62414;53.436;8.828;2022-11-20T02:50:21;100844.16;;;1.02
74060;BMP280;62414;53.436;8.828;2022-11-20T02:52:46;100840.72;;;1.01
74060;BMP280;62414;53.436;8.828;2022-11-20T02:55:12;100828.53;;;1.00
74060;BMP280;62414;53.436;8.828;2022-11-20T02:57:37;100825.88;;;1.00
74060;BMP280;62414;53.436;8.828;2022-11-20T03:00:06;100829.38;;;1.05
74060;BMP280;62414;53.436;8.828;2022-11-20T03:02:32;100830.22;;;1.12
74060;BMP280;62414;53.436;8.828;2022-11-20T03:04:57;100824.91;;;1.12
74060;BMP280;62414;53.436;8.828;2022-11-20T03:07:23;100820.31;;;1.13
74060;BMP280;62414;53.436;8.828;2022-11-20T03:09:48;100821.41;;;1.08
74060;BMP280;62414;53.436;8.828;2022-11-20T03:12:14;100822.16;;;1.09
74060;BMP280;62414;53.436;8.828;2022-11-20T03:14:39;100815.31;;;1.08
74060;BMP280;62414;53.436;8.828;2022-11-20T03:17:06;100816.06;;;1.08
74060;BMP280;62414;53.436;8.828;2022-11-20T03:19:32;100804.41;;;1.16
74060;BMP280;62414;53.436;8.828;2022-11-20T03:21:57;100805.63;;;1.22
74060;BMP280;62414;53.436;8.828;2022-11-20T03:24:22;100810.41;;;1.10
74060;BMP280;62414;53.436;8.828;2022-11-20T03:26:48;100810.69;;;1.05
74060;BMP280;62414;53.436;8.828;2022-11-20T03:29:13;100810.34;;;1.06
74060;BMP280;62414;53.436;8.828;2022-11-20T03:31:40;100798.19;;;1.09
74060;BMP280;62414;53.436;8.828;2022-11-20T03:34:08;100784.44;;;1.07
74060;BMP280;62414;53.436;8.828;2022-11-20T03:36:34;100777.16;;;1.03
74060;BMP280;62414;53.436;8.828;2022-11-20T03:39:00;100779.78;;;1.00
74060;BMP280;62414;53.436;8.828;2022-11-20T03:41:27;100799.22;;;1.00
74060;BMP280;62414;53.436;8.828;2022-11-20T03:43:54;100801.50;;;1.02
74060;BMP280;62414;53.436;8.828;2022-11-20T03:46:21;100799.63;;;1.02
74060;BMP280;62414;53.436;8.828;2022-11-20T03:48:47;100803.81;;;1.03
74060;BMP280;62414;53.436;8.828;2022-11-20T03:51:16;100801.91;;;1.04
74060;BMP280;62414;53.436;8.828;2022-11-20T03:53:43;100792.75;;;1.01
74060;BMP280;62414;53.436;8.828;2022-11-20T03:56:09;100794.28;;;1.02
74060;BMP280;62414;53.436;8.828;2022-11-20T03:58:36;100797.66;;;0.99
74060;BMP280;62414;53.436;8.828;2022-11-20T04:01:06;100800.91;;;1.12
74060;BMP280;62414;53.436;8.828;2022-11-20T04:03:31;100790.06;;;1.24
74060;BMP280;62414;53.436;8.828;2022-11-20T04:06:01;100791.44;;;1.15
74060;BMP280;62414;53.436;8.828;2022-11-20T04:08:29;100791.31;;;1.08
74060;BMP280;62414;53.436;8.828;2022-11-20T04:10:54;100787.88;;;1.07
74060;BMP280;62414;53.436;8.828;2022-11-20T04:13:20;100795.03;;;1.03
74060;BMP280;62414;53.436;8.828;2022-11-20T04:15:45;100796.94;;;1.02
74060;BMP280;62414;53.436;8.828;2022-11-20T04:18:11;100797.31;;;1.01
74060;BMP280;62414;53.436;8.828;2022-11-20T04:20:36;100801.44;;;0.98
74060;BMP280;62414;53.436;8.828;2022-11-20T04:23:01;100798.78;;;0.98
74060;BMP280;62414;53.436;8.828;2022-11-20T04:25:28;100787.81;;;1.03
74060;BMP280;62414;53.436;8.828;2022-11-20T04:27:54;100793.81;;;0.97
74060;BMP280;62414;53.436;8.828;2022-11-20T04:30:20;100792.69;;;0.98
74060;BMP280;62414;53.436;8.828;2022-11-20T04:32:45;100782.41;;;0.96
74060;BMP280;62414;53.436;8.828;2022-11-20T04:35:10;100788.06;;;0.95
74060;BMP280;62414;53.436;8.828;2022-11-20T04:37:36;100774.41;;;0.96
74060;BMP280;62414;53.436;8.828;2022-11-20T04:40:01;100785.88;;;1.00
74060;BMP280;62414;53.436;8.828;2022-11-20T04:42:28;100768.75;;;1.01
74060;BMP280;62414;53.436;8.828;2022-11-20T04:44:54;100767.91;;;1.20
74060;BMP280;62414;53.436;8.828;2022-11-20T04:47:20;100764.88;;;1.22
74060;BMP280;62414;53.436;8.828;2022-11-20T04:49:45;100762.94;;;1.19
74060;BMP280;62414;53.436;8.828;2022-11-20T04:52:11;100769.75;;;1.16
74060;BMP280;62414;53.436;8.828;2022-11-20T04:54:36;100763.59;;;1.12
74060;BMP280;62414;53.436;8.828;2022-11-20T04:57:01;100771.88;;;1.07
74060;BMP280;62414;53.436;8.828;2022-11-20T04:59:28;100767.69;;;1.06
74060;BMP280;62414;53.436;8.828;2022-11-20T05:01:54;100771.06;;;1.03
74060;BMP280;62414;53.436;8.828;2022-11-20T05:04:19;100764.56;;;1.00
74060;BMP280;62414;53.436;8.828;2022-11-20T05:06:44;100767.94;;;0.97
74060;BMP280;62414;53.436;8.828;2022-11-20T05:09:10;100759.63;;;1.02
74060;BMP280;62414;53.436;8.828;2022-11-20T05:11:35;100763.53;;;1.09
74060;BMP280;62414;53.436;8.828;2022-11-20T05:14:01;100763.88;;;1.07
74060;BMP280;62414;53.436;8.828;2022-11-20T05:16:27;100754.72;;;1.05
74060;BMP280;62414;53.436;8.828;2022-11-20T05:18:53;100765.31;;;1.01
74060;BMP280;62414;53.436;8.828;2022-11-20T05:21:20;100748.91;;;0.99
74060;BMP280;62414;53.436;8.828;2022-11-20T05:23:46;100756.56;;;1.00
74060;BMP280;62414;53.436;8.828;2022-11-20T05:26:16;100753.63;;;1.09
74060;BMP280;62414;53.436;8.828;2022-11-20T05:28:41;100756.03;;;1.18
74060;BMP280;62414;53.436;8.828;2022-11-20T05:31:08;100751.06;;;1.16
74060;BMP280;62414;53.436;8.828;2022-11-20T05:33:36;100750.72;;;1.18
74060;BMP280;62414;53.436;8.828;2022-11-20T05:36:01;100748.50;;;1.23
74060;BMP280;62414;53.436;8.828;2022-11-20T05:38:27;100744.66;;;1.21
74060;BMP280;62414;53.436;8.828;2022-11-20T05:40:52;100754.00;;;1.08
74060;BMP280;62414;53.436;8.828;2022-11-20T05:43:18;100745.94;;;1.04
74060;BMP280;62414;53.436;8.828;2022-11-20T05:45:51;100739.84;;;1.03
74060;BMP280;62414;53.436;8.828;2022-11-20T05:48:17;100731.53;;;1.09
74060;BMP280;62414;53.436;8.828;2022-11-20T05:50:44;100720.03;;;1.01
74060;BMP280;62414;53.436;8.828;2022-11-20T05:53:09;100723.34;;;0.94
74060;BMP280;62414;53.436;8.828;2022-11-20T05:55:34;100720.28;;;0.92
74060;BMP280;62414;53.436;8.828;2022-11-20T05:58:00;100719.88;;;0.90
74060;BMP280;62414;53.436;8.828;2022-11-20T06:00:25;100714.47;;;0.87
74060;BMP280;62414;53.436;8.828;2022-11-20T06:02:51;100712.53;;;0.84
74060;BMP280;62414;53.436;8.828;2022-11-20T06:05:16;100701.16;;;0.87
74060;BMP280;62414;53.436;8.828;2022-11-20T06:07:43;100696.69;;;0.94
74060;BMP280;62414;53.436;8.828;2022-11-20T06:10:09;100698.53;;;1.17
74060;BMP280;62414;53.436;8.828;2022-11-20T06:12:34;100698.94;;;1.19
74060;BMP280;62414;53.436;8.828;2022-11-20T06:15:00;100698.03;;;1.08
74060;BMP280;62414;53.436;8.828;2022-11-20T06:17:25;100700.19;;;0.98
74060;BMP280;62414;53.436;8.828;2022-11-20T06:19:51;100703.56;;;0.95
74060;BMP280;62414;53.436;8.828;2022-11-20T06:22:16;100698.19;;;0.92
74060;BMP280;62414;53.436;8.828;2022-11-20T06:24:43;100705.34;;;0.88
74060;BMP280;62414;53.436;8.828;2022-11-20T06:27:08;100706.50;;;0.87
74060;BMP280;62414;53.436;8.828;2022-11-20T06:29:34;100708.34;;;0.83
74060;BMP280;62414;53.436;8.828;2022-11-20T06:31:59;100713.59;;;0.79
74060;BMP280;62414;53.436;8.828;2022-11-20T06:34:24;100714.72;;;0.78
74060;BMP280;62414;53.436;8.828;2022-11-20T06:36:50;100710.94;;;0.79
74060;BMP280;62414;53.436;8.828;2022-11-20T06:39:15;100707.13;;;0.80
74060;BMP280;62414;53.436;8.828;2022-11-20T06:41:42;100710.22;;;0.82
74060;BMP280;62414;53.436;8.828;2022-11-20T06:44:07;100711.75;;;0.83
74060;BMP280;62414;53.436;8.828;2022-11-20T06:46:33;100712.81;;;0.78
74060;BMP280;62414;53.436;8.828;2022-11-20T06:48:58;100712.13;;;0.82
74060;BMP280;62414;53.436;8.828;2022-11-20T06:51:24;100707.84;;;1.03
74060;BMP280;62414;53.436;8.828;2022-11-20T06:53:49;100695.56;;;0.95
74060;BMP280;62414;53.436;8.828;2022-11-20T06:56:15;100699.56;;;0.82
74060;BMP280;62414;53.436;8.828;2022-11-20T06:58:41;100693.72;;;0.73
74060;BMP280;62414;53.436;8.828;2022-11-20T07:01:09;100694.72;;;0.65
74060;BMP280;62414;53.436;8.828;2022-11-20T07:03:35;100702.63;;;0.58
74060;BMP280;62414;53.436;8.828;2022-11-20T07:06:01;100701.38;;;0.51
74060;BMP280;62414;53.436;8.828;2022-11-20T07:08:27;100698.31;;;0.49
74060;BMP280;62414;53.436;8.828;2022-11-20T07:10:57;100708.53;;;0.47
74060;BMP280;62414;53.436;8.828;2022-11-20T07:13:22;100708.06;;;0.42
74060;BMP280;62414;53.436;8.828;2022-11-20T07:15:49;100704.28;;;0.43
74060;BMP280;62414;53.436;8.828;2022-11-20T07:18:14;100700.13;;;0.45
74060;BMP280;62414;53.436;8.828;2022-11-20T07:20:40;100701.31;;;0.48
74060;BMP280;62414;53.436;8.828;2022-11-20T07:23:05;100696.03;;;0.51
74060;BMP280;62414;53.436;8.828;2022-11-20T07:25:31;100701.38;;;0.51
74060;BMP280;62414;53.436;8.828;2022-11-20T07:27:56;100703.72;;;0.57
74060;BMP280;62414;53.436;8.828;2022-11-20T07:30:22;100702.78;;;0.68
74060;BMP280;62414;53.436;8.828;2022-11-20T07:32:50;100700.78;;;0.88
74060;BMP280;62414;53.436;8.828;2022-11-20T07:35:16;100706.44;;;1.10
74060;BMP280;62414;53.436;8.828;2022-11-20T07:37:41;100704.47;;;1.07
74060;BMP280;62414;53.436;8.828;2022-11-20T07:40:07;100696.75;;;0.98
74060;BMP280;62414;53.436;8.828;2022-11-20T07:42:33;100692.50;;;0.93
74060;BMP280;62414;53.436;8.828;2022-11-20T07:45:00;100692.50;;;0.93
74060;BMP280;62414;53.436;8.828;2022-11-20T07:47:26;100691.72;;;0.93
74060;BMP280;62414;53.436;8.828;2022-11-20T07:49:53;100688.34;;;0.96
74060;BMP280;62414;53.436;8.828;2022-11-20T07:52:18;100700.94;;;0.99
74060;BMP280;62414;53.436;8.828;2022-11-20T07:54:43;100696.75;;;0.98
74060;BMP280;62414;53.436;8.828;2022-11-20T07:57:09;100689.94;;;1.00
74060;BMP280;62414;53.436;8.828;2022-11-20T07:59:34;100690.38;;;1.06
74060;BMP280;62414;53.436;8.828;2022-11-20T08:02:00;100696.28;;;1.19
74060;BMP280;62414;53.436;8.828;2022-11-20T08:04:25;100693.31;;;1.24
74060;BMP280;62414;53.436;8.828;2022-11-20T08:06:53;100698.72;;;1.35
74060;BMP280;62414;53.436;8.828;2022-11-20T08:09:18;100703.75;;;1.40
74060;BMP280;62414;53.436;8.828;2022-11-20T08:11:43;100701.03;;;1.36
74060;BMP280;62414;53.436;8.828;2022-11-20T08:14:09;100702.63;;;1.41
74060;BMP280;62414;53.436;8.828;2022-11-20T08:16:34;100699.19;;;1.40
74060;BMP280;62414;53.436;8.828;2022-11-20T08:19:00;100697.66;;;1.39
74060;BMP280;62414;53.436;8.828;2022-11-20T08:21:25;100700.38;;;1.43
74060;BMP280;62414;53.436;8.828;2022-11-20T08:23:52;100704.88;;;1.39
74060;BMP280;62414;53.436;8.828;2022-11-20T08:26:17;100703.81;;;1.43
74060;BMP280;62414;53.436;8.828;2022-11-20T08:28:43;100707.22;;;1.44
74060;BMP280;62414;53.436;8.828;2022-11-20T08:31:08;100696.63;;;1.47
74060;BMP280;62414;53.436;8.828;2022-11-20T08:33:33;100696.63;;;1.51
74060;BMP280;62414;53.436;8.828;2022-11-20T08:36:00;100697.50;;;1.59
74060;BMP280;62414;53.436;8.828;2022-11-20T08:38:25;100699.75;;;1.56
74060;BMP280;62414;53.436;8.828;2022-11-20T08:40:56;100696.75;;;1.58
74060;BMP280;62414;53.436;8.828;2022-11-20T08:43:21;100704.31;;;1.56
74060;BMP280;62414;53.436;8.828;2022-11-20T08:45:47;100702.16;;;1.65
74060;BMP280;62414;53.436;8.828;2022-11-20T08:48:12;100705.63;;;1.69
74060;BMP280;62414;53.436;8.828;2022-11-20T08:50:37;100709.81;;;1.67
74060;BMP280;62414;53.436;8.828;2022-11-20T08:53:03;100707.91;;;1.67
74060;BMP280;62414;53.436;8.828;2022-11-20T08:55:29;100706.88;;;1.79
74060;BMP280;62414;53.436;8.828;2022-11-20T08:57:56;100699.75;;;1.94
74060;BMP280;62414;53.436;8.828;2022-11-20T09:00:21;100700.41;;;2.21
74060;BMP280;62414;53.436;8.828;2022-11-20T09:02:46;100700.31;;;2.10
74060;BMP280;62414;53.436;8.828;2022-11-20T09:05:12;100703.94;;;1.91
74060;BMP280;62414;53.436;8.828;2022-11-20T09:07:37;100707.72;;;1.87
74060;BMP280;62414;53.436;8.828;2022-11-20T09:10:04;100705.06;;;1.90
74060;BMP280;62414;53.436;8.828;2022-11-20T09:12:29;100709.22;;;1.84
74060;BMP280;62414;53.436;8.828;2022-11-20T09:14:56;100709.09;;;1.73
74060;BMP280;62414;53.436;8.828;2022-11-20T09:17:21;100714.06;;;1.75
74060;BMP280;62414;53.436;8.828;2022-11-20T09:19:47;100711.44;;;1.78
74060;BMP280;62414;53.436;8.828;2022-11-20T09:22:12;100712.16;;;1.75
74060;BMP280;62414;53.436;8.828;2022-11-20T09:24:37;100703.28;;;1.64
74060;BMP280;62414;53.436;8.828;2022-11-20T09:27:04;100707.09;;;1.63
74060;BMP280;62414;53.436;8.828;2022-11-20T09:29:29;100702.50;;;1.64
74060;BMP280;62414;53.436;8.828;2022-11-20T09:31:56;100712.03;;;1.65
74060;BMP280;62414;53.436;8.828;2022-11-20T09:34:21;100712.81;;;1.65
74060;BMP280;62414;53.436;8.828;2022-11-20T09:36:47;100709.38;;;1.65
74060;BMP280;62414;53.436;8.828;2022-11-20T09:39:12;100714.75;;;1.68
74060;BMP280;62414;53.436;8.828;2022-11-20T09:44:40;100713.66;;;2.10
74060;BMP280;62414;53.436;8.828;2022-11-20T09:47:16;100713.16;;;2.42
74060;BMP280;62414;53.436;8.828;2022-11-20T09:49:59;100722.22;;;2.81
74060;BMP280;62414;53.436;8.828;2022-11-20T09:52:34;100727.31;;;3.08
74060;BMP280;62414;53.436;8.828;2022-11-20T09:55:03;100746.44;;;3.06
74060;BMP280;62414;53.436;8.828;2022-11-20T09:57:34;100739.13;;;3.03
74060;BMP280;62414;53.436;8.828;2022-11-20T10:00:03;100742.13;;;2.87
74060;BMP280;62414;53.436;8.828;2022-11-20T10:02:42;100735.28;;;2.94
74060;BMP280;62414;53.436;8.828;2022-11-20T10:05:11;100741.03;;;2.99
74060;BMP280;62414;53.436;8.828;2022-11-20T10:07:41;100741.75;;;2.89
74060;BMP280;62414;53.436;8.828;2022-11-20T10:10:14;100739.84;;;2.90
74060;BMP280;62414;53.436;8.828;2022-11-20T10:12:50;100734.59;;;3.07
74060;BMP280;62414;53.436;8.828;2022-11-20T10:15:29;100736.97;;;3.27
74060;BMP280;62414;53.436;8.828;2022-11-20T10:18:18;100752.31;;;3.37
74060;BMP280;62414;53.436;8.828;2022-11-20T10:20:50;100746.25;;;3.54
74060;BMP280;62414;53.436;8.828;2022-11-20T10:23:31;100743.66;;;3.83
74060;BMP280;62414;53.436;8.828;2022-11-20T10:26:03;100757.13;;;4.15
74060;BMP280;62414;53.436;8.828;2022-11-20T10:28:37;100755.59;;;4.35
74060;BMP280;62414;53.436;8.828;2022-11-20T10:31:10;100753.28;;;4.41
74060;BMP280;62414;53.436;8.828;2022-11-20T10:33:40;100752.91;;;4.71
74060;BMP280;62414;53.436;8.828;2022-11-20T10:36:15;100751.31;;;4.81
74060;BMP280;62414;53.436;8.828;2022-11-20T10:38:45;100755.44;;;5.14
74060;BMP280;62414;53.436;8.828;2022-11-20T10:41:16;100750.88;;;5.07
74060;BMP280;62414;53.436;8.828;2022-11-20T10:43:46;100745.53;;;5.00
74060;BMP280;62414;53.436;8.828;2022-11-20T10:46:16;100752.06;;;4.99
74060;BMP280;62414;53.436;8.828;2022-11-20T10:48:44;100750.13;;;4.99
74060;BMP280;62414;53.436;8.828;2022-11-20T10:51:18;100744.81;;;4.89
74060;BMP280;62414;53.436;8.828;2022-11-20T10:53:54;100748.63;;;4.77
74060;BMP280;62414;53.436;8.828;2022-11-20T10:56:24;100747.16;;;4.76
74060;BMP280;62414;53.436;8.828;2022-11-20T11:01:40;100738.59;;;5.13
74060;BMP280;62414;53.436;8.828;2022-11-20T11:04:21;100743.97;;;5.10
74060;BMP280;62414;53.436;8.828;2022-11-20T11:06:48;100726.59;;;5.43
74060;BMP280;62414;53.436;8.828;2022-11-20T11:09:17;100742.84;;;5.80
74060;BMP280;62414;53.436;8.828;2022-11-20T11:11:45;100747.06;;;5.85
74060;BMP280;62414;53.436;8.828;2022-11-20T11:14:12;100740.91;;;5.84
74060;BMP280;62414;53.436;8.828;2022-11-20T11:16:49;100737.34;;;5.39
74060;BMP280;62414;53.436;8.828;2022-11-20T11:19:16;100736.25;;;5.26
74060;BMP280;62414;53.436;8.828;2022-11-20T11:21:46;100722.47;;;5.17
74060;BMP280;62414;53.436;8.828;2022-11-20T11:24:19;100729.81;;;4.95
74060;BMP280;62414;53.436;8.828;2022-11-20T11:26:52;100730.63;;;4.78
74060;BMP280;62414;53.436;8.828;2022-11-20T11:29:18;100728.00;;;4.70
74060;BMP280;62414;53.436;8.828;2022-11-20T11:31:43;100723.81;;;4.48
74060;BMP280;62414;53.436;8.828;2022-11-20T11:34:12;100719.94;;;4.60
74060;BMP280;62414;53.436;8.828;2022-11-20T11:36:39;100722.59;;;4.74
74060;BMP280;62414;53.436;8.828;2022-11-20T11:39:08;100720.72;;;4.74
74060;BMP280;62414;53.436;8.828;2022-11-20T11:41:36;100717.25;;;4.74
74060;BMP280;62414;53.436;8.828;2022-11-20T11:44:15;100713.44;;;4.71
74060;BMP280;62414;53.436;8.828;2022-11-20T11:46:49;100713.38;;;4.79
74060;BMP280;62414;53.436;8.828;2022-11-20T11:49:16;100715.38;;;4.53
74060;BMP280;62414;53.436;8.828;2022-11-20T11:52:00;100698.91;;;4.40
74060;BMP280;62414;53.436;8.828;2022-11-20T11:54:29;100701.25;;;4.38
74060;BMP280;62414;53.436;8.828;2022-11-20T11:56:58;100689.00;;;4.34
74060;BMP280;62414;53.436;8.828;2022-11-20T11:59:27;100692.41;;;4.41
74060;BMP280;62414;53.436;8.828;2022-11-20T12:01:59;100692.78;;;4.51
74060;BMP280;62414;53.436;8.828;2022-11-20T12:04:39;100703.53;;;4.36
74060;BMP280;62414;53.436;8.828;2022-11-20T12:07:13;100711.97;;;4.28
74060;BMP280;62414;53.436;8.828;2022-11-20T12:09:43;100695.09;;;4.31
74060;BMP280;62414;53.436;8.828;2022-11-20T12:12:16;100698.19;;;4.15
74060;BMP280;62414;53.436;8.828;2022-11-20T12:14:46;100692.81;;;4.01
74060;BMP280;62414;53.436;8.828;2022-11-20T12:17:14;100691.63;;;3.98
74060;BMP280;62414;53.436;8.828;2022-11-20T12:19:40;100691.28;;;3.96
74060;BMP280;62414;53.436;8.828;2022-11-20T12:22:16;100692.81;;;4.11
74060;BMP280;62414;53.436;8.828;2022-11-20T12:24:54;100690.13;;;4.11
74060;BMP280;62414;53.436;8.828;2022-11-20T12:27:47;100687.47;;;4.04
74060;BMP280;62414;53.436;8.828;2022-11-20T12:30:15;100689.75;;;3.95
74060;BMP280;62414;53.436;8.828;2022-11-20T12:35:37;100657.97;;;3.47
74060;BMP280;62414;53.436;8.828;2022-11-20T12:38:24;100642.56;;;3.26
74060;BMP280;62414;53.436;8.828;2022-11-20T12:41:00;100641.47;;;3.24
74060;BMP280;62414;53.436;8.828;2022-11-20T12:43:31;100640.28;;;3.14
74060;BMP280;62414;53.436;8.828;2022-11-20T12:46:12;100634.91;;;3.10
74060;BMP280;62414;53.436;8.828;2022-11-20T12:48:52;100635.72;;;3.18
74060;BMP280;62414;53.436;8.828;2022-11-20T12:51:36;100630.31;;;3.11
74060;BMP280;62414;53.436;8.828;2022-11-20T12:54:26;100624.91;;;2.97
74060;BMP280;62414;53.436;8.828;2022-11-20T12:56:59;100629.88;;;3.02
74060;BMP280;62414;53.436;8.828;2022-11-20T12:59:38;100627.25;;;3.09
74060;BMP280;62414;53.436;8.828;2022-11-20T13:02:22;100633.03;;;3.22
74060;BMP280;62414;53.436;8.828;2022-11-20T13:05:00;100626.16;;;3.24
74060;BMP280;62414;53.436;8.828;2022-11-20T13:07:30;100620.03;;;3.27
74060;BMP280;62414;53.436;8.828;2022-11-20T13:09:58;100625.00;;;3.29
74060;BMP280;62414;53.436;8.828;2022-11-20T13:12:27;100629.19;;;3.26
74060;BMP280;62414;53.436;8.828;2022-11-20T13:15:03;100617.38;;;3.24
74060;BMP280;62414;53.436;8.828;2022-11-20T13:17:35;100608.94;;;3.14
74060;BMP280;62414;53.436;8.828;2022-11-20T13:20:03;100612.03;;;3.24
74060;BMP280;62414;53.436;8.828;2022-11-20T13:22:43;100607.03;;;3.26
74060;BMP280;62414;53.436;8.828;2022-11-20T13:25:21;100604.78;;;3.24
74060;BMP280;62414;53.436;8.828;2022-11-20T13:27:47;100603.97;;;3.17
74060;BMP280;62414;53.436;8.828;2022-11-20T13:30:15;100607.09;;;3.40
74060;BMP280;62414;53.436;8.828;2022-11-20T13:32:49;100641.22;;;5.16
74060;BMP280;62414;53.436;8.828;2022-11-20T13:35:24;100662.72;;;7.15
74060;BMP280;62414;53.436;8.828;2022-11-20T13:37:59;100655.63;;;7.79
74060;BMP280;62414;53.436;8.828;2022-11-20T13:40:27;100656.19;;;7.16
74060;BMP280;62414;53.436;8.828;2022-11-20T13:43:00;100654.81;;;7.05
74060;BMP280;62414;53.436;8.828;2022-11-20T13:45:27;100651.25;;;8.48
74060;BMP280;62414;53.436;8.828;2022-11-20T13:47:54;100659.13;;;9.47
74060;BMP280;62414;53.436;8.828;2022-11-20T13:50:32;100660.09;;;9.70
74060;BMP280;62414;53.436;8.828;2022-11-20T13:53:10;100647.50;;;10.50
74060;BMP280;62414;53.436;8.828;2022-11-20T13:55:45;100649.00;;;9.35
74060;BMP280;62414;53.436;8.828;2022-11-20T13:58:23;100640.50;;;7.85
74060;BMP280;62414;53.436;8.828;2022-11-20T14:00:55;100643.91;;;7.66
74060;BMP280;62414;53.436;8.828;2022-11-20T14:03:24;100644.56;;;8.92
74060;BMP280;62414;53.436;8.828;2022-11-20T14:05:53;100644.72;;;8.49
74060;BMP280;62414;53.436;8.828;2022-11-20T14:08:25;100631.34;;;7.32
74060;BMP280;62414;53.436;8.828;2022-11-20T14:11:03;100634.78;;;6.45
74060;BMP280;62414;53.436;8.828;2022-11-20T14:13:29;100629.00;;;5.67
74060;BMP280;62414;53.436;8.828;2022-11-20T14:15:56;100623.38;;;4.78
74060;BMP280;62414;53.436;8.828;2022-11-20T14:18:22;100610.94;;;4.07
74060;BMP280;62414;53.436;8.828;2022-11-20T14:20:48;100594.09;;;3.60
74060;BMP280;62414;53.436;8.828;2022-11-20T14:23:23;100588.75;;;3.38
74060;BMP280;62414;53.436;8.828;2022-11-20T14:25:50;100585.63;;;3.15